sensor_id;sensor_type;location;lat;lon;timestamp;temperature;humidity
54642;DHT22;40536;53.194;5.728;2023-07-13T00:00:29;16.60;99.90
54642;DHT22;40536;53.194;5.728;2023-07-13T00:02:55;16.50;99.90
54642;DHT22;40536;53.194;5.728;2023-07-13T00:05:22;16.50;99.90
54642;DHT22;40536;53.194;5.728;2023-07-13T00:07:49;16.40;99.90
54642;DHT22;40536;53.194;5.728;2023-07-13T00:10:15;16.40;99.90
54642;DHT22;40536;53.194;5.728;2023-07-13T00:12:41;16.40;99.90
54642;DHT22;40536;53.194;5.728;2023-07-13T00:15:14;16.40;99.90
54642;DHT22;40536;53.194;5.728;2023-07-13T00:17:41;16.40;99.90
54642;DHT22;40536;53.194;5.728;2023-07-13T00:20:10;16.40;99.90
54642;DHT22;40536;53.194;5.728;2023-07-13T00:22:36;16.40;99.90
54642;DHT22;40536;53.194;5.728;2023-07-13T00:25:02;16.40;99.90
54642;DHT22;40536;53.194;5.728;2023-07-13T00:27:28;16.40;99.90
54642;DHT22;40536;53.194;5.728;2023-07-13T00:29:57;16.40;99.90
54642;DHT22;40536;53.194;5.728;2023-07-13T00:32:24;16.40;99.90
54642;DHT22;40536;53.194;5.728;2023-07-13T00:34:51;16.40;99.90
54642;DHT22;40536;53.194;5.728;2023-07-13T00:37:17;16.30;99.90
54642;DHT22;40536;53.194;5.728;2023-07-13T00:39:43;16.30;99.90
54642;DHT22;40536;53.194;5.728;2023-07-13T00:42:08;16.30;99.90
54642;DHT22;40536;53.194;5.728;2023-07-13T00:44:35;16.30;99.90
54642;DHT22;40536;53.194;5.728;2023-07-13T00:47:01;16.20;99.90
54642;DHT22;40536;53.194;5.728;2023-07-13T00:49:30;16.20;99.90
54642;DHT22;40536;53.194;5.728;2023-07-13T00:52:01;16.20;99.90
54642;DHT22;40536;53.194;5.728;2023-07-13T00:54:37;16.10;99.90
54642;DHT22;40536;53.194;5.728;2023-07-13T00:57:08;16.10;99.90
54642;DHT22;40536;53.194;5.728;2023-07-13T00:59:40;16.10;99.90
54642;DHT22;40536;53.194;5.728;2023-07-13T01:02:07;16.00;99.90
54642;DHT22;40536;53.194;5.728;2023-07-13T01:04:32;16.10;99.90
54642;DHT22;40536;53.194;5.728;2023-07-13T01:06:58;16.10;99.90
54642;DHT22;40536;53.194;5.728;2023-07-13T01:09:26;16.00;99.90
54642;DHT22;40536;53.194;5.728;2023-07-13T01:11:52;16.00;99.90
54642;DHT22;40536;53.194;5.728;2023-07-13T01:14:19;16.00;99.90
54642;DHT22;40536;53.194;5.728;2023-07-13T01:16:46;16.00;99.90
54642;DHT22;40536;53.194;5.728;2023-07-13T01:19:35;15.90;99.90
54642;DHT22;40536;53.194;5.728;2023-07-13T01:22:16;15.90;99.90
54642;DHT22;40536;53.194;5.728;2023-07-13T01:24:46;15.90;99.90
54642;DHT22;40536;53.194;5.728;2023-07-13T01:27:15;15.90;99.90
54642;DHT22;40536;53.194;5.728;2023-07-13T01:29:43;15.90;99.90
54642;DHT22;40536;53.194;5.728;2023-07-13T01:32:11;15.90;99.90
54642;DHT22;40536;53.194;5.728;2023-07-13T01:34:38;16.00;99.90
54642;DHT22;40536;53.194;5.728;2023-07-13T01:37:08;16.00;99.90
54642;DHT22;40536;53.194;5.728;2023-07-13T01:39:35;16.10;99.90
54642;DHT22;40536;53.194;5.728;2023-07-13T01:42:00;16.10;99.90
54642;DHT22;40536;53.194;5.728;2023-07-13T01:44:27;16.20;99.90
54642;DHT22;40536;53.194;5.728;2023-07-13T01:46:52;16.20;99.90
54642;DHT22;40536;53.194;5.728;2023-07-13T01:49:21;16.20;99.90
54642;DHT22;40536;53.194;5.728;2023-07-13T01:51:47;16.20;99.90
54642;DHT22;40536;53.194;5.728;2023-07-13T01:54:13;16.20;99.90
54642;DHT22;40536;53.194;5.728;2023-07-13T01:56:38;16.20;99.90
54642;DHT22;40536;53.194;5.728;2023-07-13T01:59:05;16.20;99.90
54642;DHT22;40536;53.194;5.728;2023-07-13T02:01:30;16.20;99.90
54642;DHT22;40536;53.194;5.728;2023-07-13T02:03:56;16.20;99.90
54642;DHT22;40536;53.194;5.728;2023-07-13T02:06:22;16.20;99.90
54642;DHT22;40536;53.194;5.728;2023-07-13T02:08:47;16.10;99.90
54642;DHT22;40536;53.194;5.728;2023-07-13T02:11:13;16.20;99.90
54642;DHT22;40536;53.194;5.728;2023-07-13T02:13:39;16.10;99.90
54642;DHT22;40536;53.194;5.728;2023-07-13T02:16:05;16.10;99.90
54642;DHT22;40536;53.194;5.728;2023-07-13T02:18:31;16.00;99.90
54642;DHT22;40536;53.194;5.728;2023-07-13T02:20:57;16.00;99.90
54642;DHT22;40536;53.194;5.728;2023-07-13T02:23:23;16.00;99.90
54642;DHT22;40536;53.194;5.728;2023-07-13T02:25:49;16.00;99.90
54642;DHT22;40536;53.194;5.728;2023-07-13T02:28:15;16.00;99.90
54642;DHT22;40536;53.194;5.728;2023-07-13T02:30:40;16.00;99.90
54642;DHT22;40536;53.194;5.728;2023-07-13T02:33:06;16.10;99.90
54642;DHT22;40536;53.194;5.728;2023-07-13T02:35:32;16.10;99.90
54642;DHT22;40536;53.194;5.728;2023-07-13T02:37:57;16.10;99.90
54642;DHT22;40536;53.194;5.728;2023-07-13T02:40:23;16.10;99.90
54642;DHT22;40536;53.194;5.728;2023-07-13T02:42:49;16.10;99.90
54642;DHT22;40536;53.194;5.728;2023-07-13T02:45:14;16.10;99.90
54642;DHT22;40536;53.194;5.728;2023-07-13T02:47:41;16.10;99.90
54642;DHT22;40536;53.194;5.728;2023-07-13T02:50:08;16.10;99.90
54642;DHT22;40536;53.194;5.728;2023-07-13T02:52:34;16.00;99.90
54642;DHT22;40536;53.194;5.728;2023-07-13T02:54:59;16.00;99.90
54642;DHT22;40536;53.194;5.728;2023-07-13T02:57:25;16.00;99.90
54642;DHT22;40536;53.194;5.728;2023-07-13T02:59:54;16.00;99.90
54642;DHT22;40536;53.194;5.728;2023-07-13T03:02:20;15.90;99.90
54642;DHT22;40536;53.194;5.728;2023-07-13T03:04:45;16.00;99.90
54642;DHT22;40536;53.194;5.728;2023-07-13T03:07:11;15.90;99.90
54642;DHT22;40536;53.194;5.728;2023-07-13T03:09:37;16.00;99.90
54642;DHT22;40536;53.194;5.728;2023-07-13T03:12:03;15.90;99.90
54642;DHT22;40536;53.194;5.728;2023-07-13T03:14:29;15.90;99.90
54642;DHT22;40536;53.194;5.728;2023-07-13T03:16:55;15.90;99.90
54642;DHT22;40536;53.194;5.728;2023-07-13T03:19:21;15.90;99.90
54642;DHT22;40536;53.194;5.728;2023-07-13T03:21:46;15.90;99.90
54642;DHT22;40536;53.194;5.728;2023-07-13T03:24:12;15.90;99.90
54642;DHT22;40536;53.194;5.728;2023-07-13T03:26:38;15.80;99.90
54642;DHT22;40536;53.194;5.728;2023-07-13T03:29:03;15.80;99.90
54642;DHT22;40536;53.194;5.728;2023-07-13T03:31:32;15.80;99.90
54642;DHT22;40536;53.194;5.728;2023-07-13T03:33:58;15.80;99.90
54642;DHT22;40536;53.194;5.728;2023-07-13T03:36:26;15.80;99.90
54642;DHT22;40536;53.194;5.728;2023-07-13T03:38:54;15.80;99.90
54642;DHT22;40536;53.194;5.728;2023-07-13T03:41:20;15.80;99.90
54642;DHT22;40536;53.194;5.728;2023-07-13T03:43:46;15.80;99.90
54642;DHT22;40536;53.194;5.728;2023-07-13T03:46:14;15.80;99.90
54642;DHT22;40536;53.194;5.728;2023-07-13T03:48:42;15.80;99.90
54642;DHT22;40536;53.194;5.728;2023-07-13T03:51:10;15.80;99.90
54642;DHT22;40536;53.194;5.728;2023-07-13T03:53:41;15.80;99.90
54642;DHT22;40536;53.194;5.728;2023-07-13T03:56:07;15.80;99.90
54642;DHT22;40536;53.194;5.728;2023-07-13T03:58:35;15.80;99.90
54642;DHT22;40536;53.194;5.728;2023-07-13T04:01:03;15.80;99.90
54642;DHT22;40536;53.194;5.728;2023-07-13T04:03:31;15.80;99.90
54642;DHT22;40536;53.194;5.728;2023-07-13T04:05:59;15.80;99.90
54642;DHT22;40536;53.194;5.728;2023-07-13T04:08:31;15.80;99.90
54642;DHT22;40536;53.194;5.728;2023-07-13T04:10:57;15.80;99.90
54642;DHT22;40536;53.194;5.728;2023-07-13T04:13:24;15.80;99.90
54642;DHT22;40536;53.194;5.728;2023-07-13T04:15:50;15.90;99.90
54642;DHT22;40536;53.194;5.728;2023-07-13T04:18:16;15.90;99.90
54642;DHT22;40536;53.194;5.728;2023-07-13T04:20:42;15.90;99.90
54642;DHT22;40536;53.194;5.728;2023-07-13T04:23:07;15.90;99.90
54642;DHT22;40536;53.194;5.728;2023-07-13T04:25:36;15.90;99.90
54642;DHT22;40536;53.194;5.728;2023-07-13T04:28:03;15.90;99.90
54642;DHT22;40536;53.194;5.728;2023-07-13T04:30:29;15.90;99.90
54642;DHT22;40536;53.194;5.728;2023-07-13T04:32:55;15.90;99.90
54642;DHT22;40536;53.194;5.728;2023-07-13T04:35:21;16.00;99.90
54642;DHT22;40536;53.194;5.728;2023-07-13T04:37:49;16.10;99.90
54642;DHT22;40536;53.194;5.728;2023-07-13T04:40:19;16.20;99.90
54642;DHT22;40536;53.194;5.728;2023-07-13T04:42:45;16.30;99.90
54642;DHT22;40536;53.194;5.728;2023-07-13T04:45:16;16.40;99.90
54642;DHT22;40536;53.194;5.728;2023-07-13T04:47:44;16.50;99.90
54642;DHT22;40536;53.194;5.728;2023-07-13T04:50:12;16.60;99.90
54642;DHT22;40536;53.194;5.728;2023-07-13T04:52:38;16.70;99.90
54642;DHT22;40536;53.194;5.728;2023-07-13T04:55:04;16.80;99.90
54642;DHT22;40536;53.194;5.728;2023-07-13T04:57:29;16.90;99.90
54642;DHT22;40536;53.194;5.728;2023-07-13T04:59:55;17.00;99.90
54642;DHT22;40536;53.194;5.728;2023-07-13T05:02:21;17.20;99.90
54642;DHT22;40536;53.194;5.728;2023-07-13T05:04:47;17.30;99.90
54642;DHT22;40536;53.194;5.728;2023-07-13T05:07:13;17.50;99.90
54642;DHT22;40536;53.194;5.728;2023-07-13T05:09:39;17.60;99.90
54642;DHT22;40536;53.194;5.728;2023-07-13T05:12:07;17.80;99.90
54642;DHT22;40536;53.194;5.728;2023-07-13T05:14:33;18.00;99.90
54642;DHT22;40536;53.194;5.728;2023-07-13T05:16:59;18.20;99.90
54642;DHT22;40536;53.194;5.728;2023-07-13T05:19:25;18.50;99.90
54642;DHT22;40536;53.194;5.728;2023-07-13T05:21:51;18.60;99.90
54642;DHT22;40536;53.194;5.728;2023-07-13T05:24:17;18.80;99.90
54642;DHT22;40536;53.194;5.728;2023-07-13T05:26:42;19.10;99.90
54642;DHT22;40536;53.194;5.728;2023-07-13T05:29:08;19.20;99.90
54642;DHT22;40536;53.194;5.728;2023-07-13T05:31:33;19.50;99.90
54642;DHT22;40536;53.194;5.728;2023-07-13T05:33:59;19.60;99.90
54642;DHT22;40536;53.194;5.728;2023-07-13T05:36:25;19.80;99.90
54642;DHT22;40536;53.194;5.728;2023-07-13T05:38:50;20.10;99.90
54642;DHT22;40536;53.194;5.728;2023-07-13T05:41:16;20.30;99.90
54642;DHT22;40536;53.194;5.728;2023-07-13T05:43:41;20.50;99.90
54642;DHT22;40536;53.194;5.728;2023-07-13T05:46:07;20.70;99.90
54642;DHT22;40536;53.194;5.728;2023-07-13T05:48:34;20.80;99.90
54642;DHT22;40536;53.194;5.728;2023-07-13T05:51:01;21.10;99.90
54642;DHT22;40536;53.194;5.728;2023-07-13T05:53:27;21.20;99.90
54642;DHT22;40536;53.194;5.728;2023-07-13T05:55:54;21.30;99.90
54642;DHT22;40536;53.194;5.728;2023-07-13T05:58:20;21.50;99.90
54642;DHT22;40536;53.194;5.728;2023-07-13T06:00:47;21.50;99.90
54642;DHT22;40536;53.194;5.728;2023-07-13T06:03:13;21.60;99.90
54642;DHT22;40536;53.194;5.728;2023-07-13T06:05:38;21.70;99.90
54642;DHT22;40536;53.194;5.728;2023-07-13T06:08:05;21.70;99.90
54642;DHT22;40536;53.194;5.728;2023-07-13T06:10:35;21.80;99.90
54642;DHT22;40536;53.194;5.728;2023-07-13T06:13:01;22.00;99.90
54642;DHT22;40536;53.194;5.728;2023-07-13T06:15:26;22.10;99.90
54642;DHT22;40536;53.194;5.728;2023-07-13T06:17:52;22.20;99.90
54642;DHT22;40536;53.194;5.728;2023-07-13T06:20:18;22.30;99.90
54642;DHT22;40536;53.194;5.728;2023-07-13T06:22:43;22.30;99.90
54642;DHT22;40536;53.194;5.728;2023-07-13T06:25:09;22.30;99.90
54642;DHT22;40536;53.194;5.728;2023-07-13T06:27:34;22.50;99.90
54642;DHT22;40536;53.194;5.728;2023-07-13T06:30:00;22.50;99.90
54642;DHT22;40536;53.194;5.728;2023-07-13T06:32:26;22.70;99.90
54642;DHT22;40536;53.194;5.728;2023-07-13T06:34:51;22.80;99.90
54642;DHT22;40536;53.194;5.728;2023-07-13T06:37:18;22.90;99.90
54642;DHT22;40536;53.194;5.728;2023-07-13T06:39:43;23.20;99.90
54642;DHT22;40536;53.194;5.728;2023-07-13T06:42:09;23.50;99.90
54642;DHT22;40536;53.194;5.728;2023-07-13T06:44:35;23.70;99.90
54642;DHT22;40536;53.194;5.728;2023-07-13T06:47:01;23.60;99.90
54642;DHT22;40536;53.194;5.728;2023-07-13T06:49:26;23.80;99.90
54642;DHT22;40536;53.194;5.728;2023-07-13T06:51:52;24.20;99.90
54642;DHT22;40536;53.194;5.728;2023-07-13T06:54:17;24.40;99.90
54642;DHT22;40536;53.194;5.728;2023-07-13T06:56:43;23.80;99.90
54642;DHT22;40536;53.194;5.728;2023-07-13T06:59:09;23.40;99.90
54642;DHT22;40536;53.194;5.728;2023-07-13T07:01:34;22.70;99.90
54642;DHT22;40536;53.194;5.728;2023-07-13T07:04:00;22.80;99.90
54642;DHT22;40536;53.194;5.728;2023-07-13T07:06:26;23.30;99.90
54642;DHT22;40536;53.194;5.728;2023-07-13T07:08:55;23.80;99.90
54642;DHT22;40536;53.194;5.728;2023-07-13T07:11:25;23.90;99.90
54642;DHT22;40536;53.194;5.728;2023-07-13T07:13:52;23.50;99.90
54642;DHT22;40536;53.194;5.728;2023-07-13T07:16:19;23.60;99.90
54642;DHT22;40536;53.194;5.728;2023-07-13T07:18:45;24.10;99.90
54642;DHT22;40536;53.194;5.728;2023-07-13T07:21:12;24.70;99.90
54642;DHT22;40536;53.194;5.728;2023-07-13T07:23:39;25.50;99.90
54642;DHT22;40536;53.194;5.728;2023-07-13T07:26:05;25.70;99.90
54642;DHT22;40536;53.194;5.728;2023-07-13T07:28:31;25.80;99.90
54642;DHT22;40536;53.194;5.728;2023-07-13T07:30:58;25.30;99.90
54642;DHT22;40536;53.194;5.728;2023-07-13T07:33:24;24.80;99.90
54642;DHT22;40536;53.194;5.728;2023-07-13T07:35:50;24.10;99.90
54642;DHT22;40536;53.194;5.728;2023-07-13T07:38:16;23.80;99.90
54642;DHT22;40536;53.194;5.728;2023-07-13T07:40:42;23.70;99.90
54642;DHT22;40536;53.194;5.728;2023-07-13T07:43:09;23.90;99.90
54642;DHT22;40536;53.194;5.728;2023-07-13T07:45:39;23.90;99.90
54642;DHT22;40536;53.194;5.728;2023-07-13T07:48:05;23.50;99.90
54642;DHT22;40536;53.194;5.728;2023-07-13T07:50:32;23.10;99.90
54642;DHT22;40536;53.194;5.728;2023-07-13T07:53:00;23.00;99.90
54642;DHT22;40536;53.194;5.728;2023-07-13T07:55:27;23.70;99.90
54642;DHT22;40536;53.194;5.728;2023-07-13T07:57:54;24.50;99.90
54642;DHT22;40536;53.194;5.728;2023-07-13T08:00:21;24.70;99.90
54642;DHT22;40536;53.194;5.728;2023-07-13T08:02:47;25.10;99.90
54642;DHT22;40536;53.194;5.728;2023-07-13T08:05:13;25.80;99.90
54642;DHT22;40536;53.194;5.728;2023-07-13T08:07:39;26.50;99.90
54642;DHT22;40536;53.194;5.728;2023-07-13T08:10:09;27.10;99.90
54642;DHT22;40536;53.194;5.728;2023-07-13T08:12:39;27.30;99.90
54642;DHT22;40536;53.194;5.728;2023-07-13T08:15:08;27.00;99.90
54642;DHT22;40536;53.194;5.728;2023-07-13T08:17:34;26.50;99.90
54642;DHT22;40536;53.194;5.728;2023-07-13T08:20:00;26.00;99.90
54642;DHT22;40536;53.194;5.728;2023-07-13T08:22:27;25.30;99.90
54642;DHT22;40536;53.194;5.728;2023-07-13T08:24:53;25.30;99.90
54642;DHT22;40536;53.194;5.728;2023-07-13T08:27:24;25.80;99.90
54642;DHT22;40536;53.194;5.728;2023-07-13T08:29:50;26.30;99.90
54642;DHT22;40536;53.194;5.728;2023-07-13T08:32:18;26.70;99.90
54642;DHT22;40536;53.194;5.728;2023-07-13T08:34:44;26.80;99.90
54642;DHT22;40536;53.194;5.728;2023-07-13T08:37:10;27.40;99.90
54642;DHT22;40536;53.194;5.728;2023-07-13T08:39:36;27.70;99.90
54642;DHT22;40536;53.194;5.728;2023-07-13T08:47:04;26.50;99.90
54642;DHT22;40536;53.194;5.728;2023-07-13T08:49:33;26.50;99.90
54642;DHT22;40536;53.194;5.728;2023-07-13T08:52:32;26.60;99.90
54642;DHT22;40536;53.194;5.728;2023-07-13T08:55:13;26.60;99.90
54642;DHT22;40536;53.194;5.728;2023-07-13T08:57:40;26.30;99.90
54642;DHT22;40536;53.194;5.728;2023-07-13T09:00:10;25.70;99.90
54642;DHT22;40536;53.194;5.728;2023-07-13T09:02:56;25.30;99.90
54642;DHT22;40536;53.194;5.728;2023-07-13T09:05:30;25.30;99.90
54642;DHT22;40536;53.194;5.728;2023-07-13T09:08:31;25.20;99.90
54642;DHT22;40536;53.194;5.728;2023-07-13T09:14:19;24.00;99.90
54642;DHT22;40536;53.194;5.728;2023-07-13T09:16:51;24.20;99.90
54642;DHT22;40536;53.194;5.728;2023-07-13T09:19:24;25.00;99.90
54642;DHT22;40536;53.194;5.728;2023-07-13T09:21:53;25.80;99.90
54642;DHT22;40536;53.194;5.728;2023-07-13T09:24:41;26.50;99.90
54642;DHT22;40536;53.194;5.728;2023-07-13T09:27:21;27.20;99.90
54642;DHT22;40536;53.194;5.728;2023-07-13T09:30:12;27.80;99.20
54642;DHT22;40536;53.194;5.728;2023-07-13T09:32:47;28.10;98.90
54642;DHT22;40536;53.194;5.728;2023-07-13T09:35:17;28.60;98.70
54642;DHT22;40536;53.194;5.728;2023-07-13T09:37:45;28.60;98.60
54642;DHT22;40536;53.194;5.728;2023-07-13T09:40:30;28.60;98.30
54642;DHT22;40536;53.194;5.728;2023-07-13T09:43:01;28.90;98.20
54642;DHT22;40536;53.194;5.728;2023-07-13T09:45:30;28.60;98.50
54642;DHT22;40536;53.194;5.728;2023-07-13T09:48:12;28.50;99.00
54642;DHT22;40536;53.194;5.728;2023-07-13T09:50:39;29.10;98.80
54642;DHT22;40536;53.194;5.728;2023-07-13T09:53:18;29.30;98.50
54642;DHT22;40536;53.194;5.728;2023-07-13T09:55:48;28.40;98.20
54642;DHT22;40536;53.194;5.728;2023-07-13T09:58:19;27.30;98.80
54642;DHT22;40536;53.194;5.728;2023-07-13T10:00:58;26.50;98.90
54642;DHT22;40536;53.194;5.728;2023-07-13T10:03:33;25.70;99.90
54642;DHT22;40536;53.194;5.728;2023-07-13T10:06:29;25.20;99.90
54642;DHT22;40536;53.194;5.728;2023-07-13T10:08:56;25.00;99.90
54642;DHT22;40536;53.194;5.728;2023-07-13T10:11:30;25.10;99.90
54642;DHT22;40536;53.194;5.728;2023-07-13T10:13:58;25.60;99.90
54642;DHT22;40536;53.194;5.728;2023-07-13T10:16:28;26.20;99.90
54642;DHT22;40536;53.194;5.728;2023-07-13T10:19:00;26.20;99.90
54642;DHT22;40536;53.194;5.728;2023-07-13T10:21:32;25.90;99.90
54642;DHT22;40536;53.194;5.728;2023-07-13T10:24:22;26.30;99.90
54642;DHT22;40536;53.194;5.728;2023-07-13T10:29:26;27.50;99.90
54642;DHT22;40536;53.194;5.728;2023-07-13T10:31:53;28.00;99.90
54642;DHT22;40536;53.194;5.728;2023-07-13T10:34:19;27.50;98.80
54642;DHT22;40536;53.194;5.728;2023-07-13T10:36:46;26.50;99.50
54642;DHT22;40536;53.194;5.728;2023-07-13T10:39:21;26.40;99.90
54642;DHT22;40536;53.194;5.728;2023-07-13T10:41:59;26.80;99.90
54642;DHT22;40536;53.194;5.728;2023-07-13T10:44:28;27.20;99.90
54642;DHT22;40536;53.194;5.728;2023-07-13T10:47:15;27.60;99.40
54642;DHT22;40536;53.194;5.728;2023-07-13T10:49:43;27.60;99.70
54642;DHT22;40536;53.194;5.728;2023-07-13T10:52:47;27.50;99.00
54642;DHT22;40536;53.194;5.728;2023-07-13T10:55:32;27.10;99.00
54642;DHT22;40536;53.194;5.728;2023-07-13T10:58:03;26.00;99.30
54642;DHT22;40536;53.194;5.728;2023-07-13T11:00:43;26.30;99.80
54642;DHT22;40536;53.194;5.728;2023-07-13T11:03:14;26.90;99.80
54642;DHT22;40536;53.194;5.728;2023-07-13T11:05:40;27.30;98.50
54642;DHT22;40536;53.194;5.728;2023-07-13T11:10:55;27.20;99.80
54642;DHT22;40536;53.194;5.728;2023-07-13T11:16:43;26.50;99.60
54642;DHT22;40536;53.194;5.728;2023-07-13T11:33:03;27.10;99.30
54642;DHT22;40536;53.194;5.728;2023-07-13T11:35:34;27.50;99.10
54642;DHT22;40536;53.194;5.728;2023-07-13T11:38:02;27.80;98.40
54642;DHT22;40536;53.194;5.728;2023-07-13T11:40:29;27.50;98.60
54642;DHT22;40536;53.194;5.728;2023-07-13T11:43:02;27.50;99.10
54642;DHT22;40536;53.194;5.728;2023-07-13T11:45:27;27.80;99.20
54642;DHT22;40536;53.194;5.728;2023-07-13T11:47:54;27.90;98.90
54642;DHT22;40536;53.194;5.728;2023-07-13T11:50:23;28.20;99.00
54642;DHT22;40536;53.194;5.728;2023-07-13T11:52:51;28.00;98.80
54642;DHT22;40536;53.194;5.728;2023-07-13T11:55:21;28.30;99.20
54642;DHT22;40536;53.194;5.728;2023-07-13T12:00:23;28.40;98.40
54642;DHT22;40536;53.194;5.728;2023-07-13T12:02:51;28.00;99.00
54642;DHT22;40536;53.194;5.728;2023-07-13T12:05:22;27.80;99.40
54642;DHT22;40536;53.194;5.728;2023-07-13T12:07:49;27.70;99.10
54642;DHT22;40536;53.194;5.728;2023-07-13T12:12:53;27.40;99.90
54642;DHT22;40536;53.194;5.728;2023-07-13T12:15:20;27.00;99.90
54642;DHT22;40536;53.194;5.728;2023-07-13T12:17:47;26.50;99.90
54642;DHT22;40536;53.194;5.728;2023-07-13T12:20:24;26.00;99.90
54642;DHT22;40536;53.194;5.728;2023-07-13T12:22:51;25.80;99.90
54642;DHT22;40536;53.194;5.728;2023-07-13T12:25:17;25.90;99.90
54642;DHT22;40536;53.194;5.728;2023-07-13T12:27:47;26.00;99.90
54642;DHT22;40536;53.194;5.728;2023-07-13T12:30:31;26.00;99.90
54642;DHT22;40536;53.194;5.728;2023-07-13T12:33:10;25.60;99.90
54642;DHT22;40536;53.194;5.728;2023-07-13T12:35:49;25.60;99.90
54642;DHT22;40536;53.194;5.728;2023-07-13T12:38:18;25.10;99.90
54642;DHT22;40536;53.194;5.728;2023-07-13T12:40:50;25.10;99.90
54642;DHT22;40536;53.194;5.728;2023-07-13T12:43:23;25.40;99.90
54642;DHT22;40536;53.194;5.728;2023-07-13T12:48:25;25.20;99.90
54642;DHT22;40536;53.194;5.728;2023-07-13T12:50:53;25.20;99.90
54642;DHT22;40536;53.194;5.728;2023-07-13T12:53:28;25.30;99.90
54642;DHT22;40536;53.194;5.728;2023-07-13T12:56:01;25.10;99.90
54642;DHT22;40536;53.194;5.728;2023-07-13T12:58:29;24.50;99.90
54642;DHT22;40536;53.194;5.728;2023-07-13T13:00:58;24.20;99.90
54642;DHT22;40536;53.194;5.728;2023-07-13T13:05:58;24.00;99.90
54642;DHT22;40536;53.194;5.728;2023-07-13T13:08:25;24.10;99.90
54642;DHT22;40536;53.194;5.728;2023-07-13T13:10:51;24.00;99.90
54642;DHT22;40536;53.194;5.728;2023-07-13T13:13:17;24.10;99.90
54642;DHT22;40536;53.194;5.728;2023-07-13T13:15:43;24.20;99.90
54642;DHT22;40536;53.194;5.728;2023-07-13T13:18:15;24.00;99.90
54642;DHT22;40536;53.194;5.728;2023-07-13T13:20:41;23.80;99.90
54642;DHT22;40536;53.194;5.728;2023-07-13T13:23:14;23.90;99.90
54642;DHT22;40536;53.194;5.728;2023-07-13T13:25:43;24.00;99.90
54642;DHT22;40536;53.194;5.728;2023-07-13T13:28:17;23.90;99.90
54642;DHT22;40536;53.194;5.728;2023-07-13T13:30:45;23.70;99.90
54642;DHT22;40536;53.194;5.728;2023-07-13T13:33:14;23.60;99.90
54642;DHT22;40536;53.194;5.728;2023-07-13T13:35:41;23.50;99.90
54642;DHT22;40536;53.194;5.728;2023-07-13T13:38:27;23.20;99.90
54642;DHT22;40536;53.194;5.728;2023-07-13T13:40:53;22.80;99.90
54642;DHT22;40536;53.194;5.728;2023-07-13T13:43:22;22.40;99.90
54642;DHT22;40536;53.194;5.728;2023-07-13T13:45:53;22.10;99.90
54642;DHT22;40536;53.194;5.728;2023-07-13T13:48:24;21.90;99.90
54642;DHT22;40536;53.194;5.728;2023-07-13T13:50:57;21.70;99.90
54642;DHT22;40536;53.194;5.728;2023-07-13T13:53:23;22.00;99.90
54642;DHT22;40536;53.194;5.728;2023-07-13T13:55:49;22.30;99.90
54642;DHT22;40536;53.194;5.728;2023-07-13T13:58:15;22.30;99.90
54642;DHT22;40536;53.194;5.728;2023-07-13T14:00:41;22.50;99.90
54642;DHT22;40536;53.194;5.728;2023-07-13T14:03:20;22.60;99.90
54642;DHT22;40536;53.194;5.728;2023-07-13T14:05:48;22.50;99.90
54642;DHT22;40536;53.194;5.728;2023-07-13T14:08:16;22.50;99.90
54642;DHT22;40536;53.194;5.728;2023-07-13T14:10:43;22.80;99.90
54642;DHT22;40536;53.194;5.728;2023-07-13T14:13:25;22.80;99.90
54642;DHT22;40536;53.194;5.728;2023-07-13T14:15:53;22.80;99.90
54642;DHT22;40536;53.194;5.728;2023-07-13T14:18:19;22.70;99.90
54642;DHT22;40536;53.194;5.728;2023-07-13T14:20:46;22.50;99.90
54642;DHT22;40536;53.194;5.728;2023-07-13T14:23:16;22.60;99.90
54642;DHT22;40536;53.194;5.728;2023-07-13T14:25:43;22.70;99.90
54642;DHT22;40536;53.194;5.728;2023-07-13T14:28:23;22.60;99.90
54642;DHT22;40536;53.194;5.728;2023-07-13T14:30:51;22.70;99.90
54642;DHT22;40536;53.194;5.728;2023-07-13T14:33:17;22.80;99.90
54642;DHT22;40536;53.194;5.728;2023-07-13T14:35:43;22.90;99.90
54642;DHT22;40536;53.194;5.728;2023-07-13T14:38:18;23.00;99.90
54642;DHT22;40536;53.194;5.728;2023-07-13T14:40:45;22.90;99.90
54642;DHT22;40536;53.194;5.728;2023-07-13T14:43:12;22.80;99.90
54642;DHT22;40536;53.194;5.728;2023-07-13T14:45:41;23.00;99.90
54642;DHT22;40536;53.194;5.728;2023-07-13T14:48:22;23.10;99.90
54642;DHT22;40536;53.194;5.728;2023-07-13T14:50:57;22.90;99.90
54642;DHT22;40536;53.194;5.728;2023-07-13T14:53:27;22.80;99.90
54642;DHT22;40536;53.194;5.728;2023-07-13T14:55:53;22.90;99.90
54642;DHT22;40536;53.194;5.728;2023-07-13T14:58:19;23.00;99.90
54642;DHT22;40536;53.194;5.728;2023-07-13T15:00:45;22.80;99.90
54642;DHT22;40536;53.194;5.728;2023-07-13T15:03:23;22.70;99.90
54642;DHT22;40536;53.194;5.728;2023-07-13T15:05:51;22.50;99.90
54642;DHT22;40536;53.194;5.728;2023-07-13T15:08:18;22.60;99.90
54642;DHT22;40536;53.194;5.728;2023-07-13T15:10:44;22.70;99.90
54642;DHT22;40536;53.194;5.728;2023-07-13T15:13:16;22.80;99.90
54642;DHT22;40536;53.194;5.728;2023-07-13T15:15:46;22.60;99.90
54642;DHT22;40536;53.194;5.728;2023-07-13T15:18:15;22.70;99.90
54642;DHT22;40536;53.194;5.728;2023-07-13T15:20:43;22.70;99.90
54642;DHT22;40536;53.194;5.728;2023-07-13T15:23:11;22.70;99.90
54642;DHT22;40536;53.194;5.728;2023-07-13T15:25:37;22.70;99.90
54642;DHT22;40536;53.194;5.728;2023-07-13T15:28:03;22.50;99.90
54642;DHT22;40536;53.194;5.728;2023-07-13T15:30:36;22.50;99.90
54642;DHT22;40536;53.194;5.728;2023-07-13T15:33:26;22.20;99.90
54642;DHT22;40536;53.194;5.728;2023-07-13T15:35:52;22.00;99.90
54642;DHT22;40536;53.194;5.728;2023-07-13T15:38:25;21.50;99.90
54642;DHT22;40536;53.194;5.728;2023-07-13T15:40:53;21.60;99.90
54642;DHT22;40536;53.194;5.728;2023-07-13T15:43:20;22.00;99.90
54642;DHT22;40536;53.194;5.728;2023-07-13T15:45:47;22.20;99.90
54642;DHT22;40536;53.194;5.728;2023-07-13T15:48:19;22.20;99.90
54642;DHT22;40536;53.194;5.728;2023-07-13T15:50:51;22.10;99.90
54642;DHT22;40536;53.194;5.728;2023-07-13T15:53:23;21.80;99.90
54642;DHT22;40536;53.194;5.728;2023-07-13T15:55:50;21.60;99.90
54642;DHT22;40536;53.194;5.728;2023-07-13T15:58:17;21.70;99.90
54642;DHT22;40536;53.194;5.728;2023-07-13T16:00:44;21.90;99.90
54642;DHT22;40536;53.194;5.728;2023-07-13T16:03:10;22.10;99.90
54642;DHT22;40536;53.194;5.728;2023-07-13T16:05:36;22.10;99.90
54642;DHT22;40536;53.194;5.728;2023-07-13T16:08:04;22.00;99.90
54642;DHT22;40536;53.194;5.728;2023-07-13T16:10:34;21.90;99.90
54642;DHT22;40536;53.194;5.728;2023-07-13T16:13:01;21.60;99.90
54642;DHT22;40536;53.194;5.728;2023-07-13T16:15:27;21.40;99.90
54642;DHT22;40536;53.194;5.728;2023-07-13T16:17:53;21.40;99.90
54642;DHT22;40536;53.194;5.728;2023-07-13T16:20:20;21.50;99.90